Lionhead Wind

Located on Lionhead Ridge near West Yellowstone. Use the nearest SNOTEL station for snow depth data: Madison Plateau. The data on this page is also available to view at dataGarrison.com.

Elevation
8775ft
Jump to table bottom
Date Time Temperature
deg F
RH, % Wind Speed Wind Gust Wind Direction
11/29/21 13:08 29.1 92 23 33 SW - 244
11/29/21 12:08 29.7 94 22 31 W - 250
11/29/21 11:08 28.3 95 20 28 SW - 247
11/29/21 10:08 27.5 96 22 30 SW - 244
11/29/21 09:08 27.6 97 20 27 SW - 236
11/29/21 08:08 25.0 99 22 29 SW - 234
11/29/21 07:08 23.5 99 21 27 SW - 239
11/29/21 06:08 23.5 99 21 27 SW - 236
11/29/21 05:08 23.5 99 21 27 SW - 244
11/29/21 04:08 23.9 99 25 31 W - 248
11/29/21 03:08 24.0 100 26 33 W - 250
11/29/21 02:08 24.4 100 26 33 W - 257
11/29/21 01:08 24.8 100 26 33 W - 268
11/29/21 00:08 26.7 100 18 31 W - 275
11/28/21 23:08 27.8 100 12 28 W - 292
11/28/21 22:08 27.4 100 16 31 W - 289
11/28/21 21:08 26.1 100 13 31 W - 289
11/28/21 20:08 27.0 100 18 28 W - 258
11/28/21 19:08 24.7 99 12 19 SW - 223
11/28/21 18:08 24.7 99 13 20 SW - 227
11/28/21 17:08 24.8 99 14 20 SW - 246
11/28/21 16:08 25.1 99 15 22 SW - 244
11/28/21 15:08 24.7 99 18 27 SW - 246
11/28/21 14:08 25.3 98 17 25 SW - 240
11/28/21 13:08 25.4 98 20 28 SW - 243
11/28/21 12:08 25.6 98 21 27 W - 251
11/28/21 11:08 24.8 98 23 30 W - 248
11/28/21 10:08 24.2 98 22 30 W - 248
11/28/21 09:08 24.1 99 20 28 SW - 244
11/28/21 08:08 23.7 99 21 30 SW - 244
11/28/21 07:08 23.7 98 23 31 SW - 247
11/28/21 06:08 23.3 98 24 32 W - 248
11/28/21 05:08 23.1 98 24 31 W - 250
11/28/21 04:08 22.6 98 24 33 W - 248
11/28/21 03:08 22.5 98 22 32 W - 250
11/28/21 02:08 21.7 98 16 22 SW - 246
11/28/21 01:08 21.6 98 16 25 SW - 236
11/28/21 00:08 21.7 96 17 24 SW - 232
11/27/21 23:08 21.0 97 22 27 W - 251
11/27/21 22:08 20.7 97 25 31 W - 253
11/27/21 21:08 20.7 97 23 31 W - 254
11/27/21 20:08 20.7 97 15 23 SW - 240
11/27/21 19:08 20.3 97 14 20 W - 248
11/27/21 18:08 20.5 97 15 22 W - 251
11/27/21 17:08 21.0 98 21 28 SW - 247
11/27/21 16:08 21.3 96 16 27 SW - 241
11/27/21 15:08 22.1 93 16 24 SW - 244
11/27/21 14:08 22.4 91 16 22 W - 251
11/27/21 13:08 22.5 90 17 22 SW - 244
11/27/21 12:08 22.7 91 14 21 SW - 243